sensor_id;sensor_type;location;lat;lon;timestamp;P1;durP1;ratioP1;P2;durP2;ratioP2
73678;SDS011;61978;52.742;16.962;2023-11-21T00:00:19;73.70;;;22.00;;
73678;SDS011;61978;52.742;16.962;2023-11-21T00:02:45;63.50;;;22.40;;
73678;SDS011;61978;52.742;16.962;2023-11-21T00:05:22;53.50;;;22.00;;
73678;SDS011;61978;52.742;16.962;2023-11-21T00:07:54;64.10;;;23.90;;
73678;SDS011;61978;52.742;16.962;2023-11-21T00:10:34;57.90;;;22.10;;
73678;SDS011;61978;52.742;16.962;2023-11-21T00:13:04;60.00;;;22.30;;
73678;SDS011;61978;52.742;16.962;2023-11-21T00:15:38;56.00;;;22.00;;
73678;SDS011;61978;52.742;16.962;2023-11-21T00:18:08;53.20;;;22.00;;
73678;SDS011;61978;52.742;16.962;2023-11-21T00:20:35;56.80;;;23.70;;
73678;SDS011;61978;52.742;16.962;2023-11-21T00:23:05;55.40;;;23.80;;
73678;SDS011;61978;52.742;16.962;2023-11-21T00:25:30;48.40;;;22.00;;
73678;SDS011;61978;52.742;16.962;2023-11-21T00:27:56;48.10;;;20.90;;
73678;SDS011;61978;52.742;16.962;2023-11-21T00:30:22;58.00;;;22.40;;
73678;SDS011;61978;52.742;16.962;2023-11-21T00:32:48;56.90;;;21.80;;
73678;SDS011;61978;52.742;16.962;2023-11-21T00:35:13;59.90;;;22.40;;
73678;SDS011;61978;52.742;16.962;2023-11-21T00:37:39;58.60;;;22.20;;
73678;SDS011;61978;52.742;16.962;2023-11-21T00:40:05;47.90;;;20.80;;
73678;SDS011;61978;52.742;16.962;2023-11-21T00:42:32;64.30;;;22.90;;
73678;SDS011;61978;52.742;16.962;2023-11-21T00:44:59;48.60;;;21.30;;
73678;SDS011;61978;52.742;16.962;2023-11-21T00:47:25;49.30;;;20.00;;
73678;SDS011;61978;52.742;16.962;2023-11-21T00:49:50;48.00;;;21.30;;
73678;SDS011;61978;52.742;16.962;2023-11-21T00:52:16;42.40;;;18.20;;
73678;SDS011;61978;52.742;16.962;2023-11-21T00:54:42;40.00;;;18.40;;
73678;SDS011;61978;52.742;16.962;2023-11-21T00:57:09;45.00;;;20.50;;
73678;SDS011;61978;52.742;16.962;2023-11-21T00:59:36;40.80;;;20.30;;
73678;SDS011;61978;52.742;16.962;2023-11-21T01:02:02;40.70;;;20.50;;
73678;SDS011;61978;52.742;16.962;2023-11-21T01:04:30;39.70;;;19.10;;
73678;SDS011;61978;52.742;16.962;2023-11-21T01:06:57;43.50;;;19.60;;
73678;SDS011;61978;52.742;16.962;2023-11-21T01:09:23;43.80;;;20.80;;
73678;SDS011;61978;52.742;16.962;2023-11-21T01:11:49;52.90;;;21.80;;
73678;SDS011;61978;52.742;16.962;2023-11-21T01:14:15;40.10;;;17.10;;
73678;SDS011;61978;52.742;16.962;2023-11-21T01:16:43;37.50;;;19.10;;
73678;SDS011;61978;52.742;16.962;2023-11-21T01:19:08;45.70;;;19.70;;
73678;SDS011;61978;52.742;16.962;2023-11-21T01:21:34;41.50;;;18.40;;
73678;SDS011;61978;52.742;16.962;2023-11-21T01:24:00;43.70;;;20.70;;
73678;SDS011;61978;52.742;16.962;2023-11-21T01:26:25;45.30;;;20.20;;
73678;SDS011;61978;52.742;16.962;2023-11-21T01:28:51;40.10;;;17.90;;
73678;SDS011;61978;52.742;16.962;2023-11-21T01:31:17;49.60;;;20.90;;
73678;SDS011;61978;52.742;16.962;2023-11-21T01:33:43;53.00;;;20.10;;
73678;SDS011;61978;52.742;16.962;2023-11-21T01:36:09;45.30;;;19.60;;
73678;SDS011;61978;52.742;16.962;2023-11-21T01:38:35;49.40;;;21.30;;
73678;SDS011;61978;52.742;16.962;2023-11-21T01:41:01;39.30;;;19.60;;
73678;SDS011;61978;52.742;16.962;2023-11-21T01:43:27;33.20;;;16.80;;
73678;SDS011;61978;52.742;16.962;2023-11-21T01:45:54;34.70;;;17.50;;
73678;SDS011;61978;52.742;16.962;2023-11-21T01:48:22;38.10;;;17.00;;
73678;SDS011;61978;52.742;16.962;2023-11-21T01:50:48;33.80;;;16.00;;
73678;SDS011;61978;52.742;16.962;2023-11-21T01:53:14;27.90;;;15.60;;
73678;SDS011;61978;52.742;16.962;2023-11-21T01:55:40;34.00;;;17.00;;
73678;SDS011;61978;52.742;16.962;2023-11-21T01:58:07;30.70;;;14.30;;
73678;SDS011;61978;52.742;16.962;2023-11-21T02:00:33;32.20;;;14.10;;
73678;SDS011;61978;52.742;16.962;2023-11-21T02:02:59;27.20;;;13.50;;
73678;SDS011;61978;52.742;16.962;2023-11-21T02:05:24;25.80;;;14.00;;
73678;SDS011;61978;52.742;16.962;2023-11-21T02:07:51;24.40;;;11.70;;
73678;SDS011;61978;52.742;16.962;2023-11-21T02:10:18;23.90;;;13.20;;
73678;SDS011;61978;52.742;16.962;2023-11-21T02:12:49;22.00;;;13.60;;
73678;SDS011;61978;52.742;16.962;2023-11-21T02:15:18;30.50;;;15.80;;
73678;SDS011;61978;52.742;16.962;2023-11-21T02:17:48;23.50;;;14.10;;
73678;SDS011;61978;52.742;16.962;2023-11-21T02:20:17;25.90;;;14.20;;
73678;SDS011;61978;52.742;16.962;2023-11-21T02:22:43;26.10;;;14.70;;
73678;SDS011;61978;52.742;16.962;2023-11-21T02:25:09;26.80;;;13.90;;
73678;SDS011;61978;52.742;16.962;2023-11-21T02:27:34;24.10;;;13.60;;
73678;SDS011;61978;52.742;16.962;2023-11-21T02:30:00;20.00;;;12.60;;
73678;SDS011;61978;52.742;16.962;2023-11-21T02:32:26;21.70;;;13.90;;
73678;SDS011;61978;52.742;16.962;2023-11-21T02:34:52;20.60;;;13.30;;
73678;SDS011;61978;52.742;16.962;2023-11-21T02:37:21;24.80;;;14.30;;
73678;SDS011;61978;52.742;16.962;2023-11-21T02:39:46;20.30;;;12.80;;
73678;SDS011;61978;52.742;16.962;2023-11-21T02:42:12;18.60;;;12.80;;
73678;SDS011;61978;52.742;16.962;2023-11-21T02:44:37;19.20;;;13.60;;
73678;SDS011;61978;52.742;16.962;2023-11-21T02:47:03;18.80;;;11.90;;
73678;SDS011;61978;52.742;16.962;2023-11-21T02:49:29;19.10;;;11.70;;
73678;SDS011;61978;52.742;16.962;2023-11-21T02:51:56;19.70;;;12.40;;
73678;SDS011;61978;52.742;16.962;2023-11-21T02:54:21;24.30;;;12.00;;
73678;SDS011;61978;52.742;16.962;2023-11-21T02:56:47;20.20;;;10.70;;
73678;SDS011;61978;52.742;16.962;2023-11-21T02:59:15;19.10;;;11.40;;
73678;SDS011;61978;52.742;16.962;2023-11-21T03:01:41;16.70;;;11.50;;
73678;SDS011;61978;52.742;16.962;2023-11-21T03:04:07;18.00;;;11.70;;
73678;SDS011;61978;52.742;16.962;2023-11-21T03:06:33;20.80;;;12.00;;
73678;SDS011;61978;52.742;16.962;2023-11-21T03:08:59;18.80;;;11.80;;
73678;SDS011;61978;52.742;16.962;2023-11-21T03:11:25;17.80;;;11.30;;
73678;SDS011;61978;52.742;16.962;2023-11-21T03:13:50;16.20;;;10.90;;
73678;SDS011;61978;52.742;16.962;2023-11-21T03:16:16;14.20;;;10.50;;
73678;SDS011;61978;52.742;16.962;2023-11-21T03:18:41;15.00;;;10.50;;
73678;SDS011;61978;52.742;16.962;2023-11-21T03:21:07;13.50;;;10.60;;
73678;SDS011;61978;52.742;16.962;2023-11-21T03:23:34;19.10;;;11.80;;
73678;SDS011;61978;52.742;16.962;2023-11-21T03:26:01;19.80;;;11.60;;
73678;SDS011;61978;52.742;16.962;2023-11-21T03:28:27;14.20;;;10.20;;
73678;SDS011;61978;52.742;16.962;2023-11-21T03:30:53;16.10;;;11.30;;
73678;SDS011;61978;52.742;16.962;2023-11-21T03:33:19;16.70;;;11.40;;
73678;SDS011;61978;52.742;16.962;2023-11-21T03:35:45;17.80;;;12.10;;
73678;SDS011;61978;52.742;16.962;2023-11-21T03:38:11;17.50;;;10.20;;
73678;SDS011;61978;52.742;16.962;2023-11-21T03:40:37;14.60;;;10.90;;
73678;SDS011;61978;52.742;16.962;2023-11-21T03:43:05;16.70;;;11.10;;
73678;SDS011;61978;52.742;16.962;2023-11-21T03:45:31;15.50;;;10.80;;
73678;SDS011;61978;52.742;16.962;2023-11-21T03:47:57;19.80;;;11.60;;
73678;SDS011;61978;52.742;16.962;2023-11-21T03:50:22;16.60;;;10.70;;
73678;SDS011;61978;52.742;16.962;2023-11-21T03:52:48;15.80;;;9.60;;
73678;SDS011;61978;52.742;16.962;2023-11-21T03:55:14;15.00;;;9.30;;
73678;SDS011;61978;52.742;16.962;2023-11-21T03:57:41;13.00;;;9.40;;
73678;SDS011;61978;52.742;16.962;2023-11-21T04:00:07;14.20;;;9.60;;
73678;SDS011;61978;52.742;16.962;2023-11-21T04:02:37;10.70;;;8.90;;
73678;SDS011;61978;52.742;16.962;2023-11-21T04:05:03;16.50;;;10.20;;
73678;SDS011;61978;52.742;16.962;2023-11-21T04:07:30;15.20;;;10.90;;
73678;SDS011;61978;52.742;16.962;2023-11-21T04:09:57;16.40;;;10.90;;
73678;SDS011;61978;52.742;16.962;2023-11-21T04:12:23;15.30;;;11.50;;
73678;SDS011;61978;52.742;16.962;2023-11-21T04:14:48;16.20;;;11.40;;
73678;SDS011;61978;52.742;16.962;2023-11-21T04:17:14;16.90;;;10.90;;
73678;SDS011;61978;52.742;16.962;2023-11-21T04:19:41;13.40;;;10.10;;
73678;SDS011;61978;52.742;16.962;2023-11-21T04:22:06;20.20;;;12.30;;
73678;SDS011;61978;52.742;16.962;2023-11-21T04:24:32;17.60;;;11.40;;
73678;SDS011;61978;52.742;16.962;2023-11-21T04:26:57;15.90;;;11.40;;
73678;SDS011;61978;52.742;16.962;2023-11-21T04:29:23;19.90;;;11.10;;
73678;SDS011;61978;52.742;16.962;2023-11-21T04:31:49;15.40;;;12.00;;
73678;SDS011;61978;52.742;16.962;2023-11-21T04:34:16;15.70;;;11.30;;
73678;SDS011;61978;52.742;16.962;2023-11-21T04:36:41;20.00;;;13.30;;
73678;SDS011;61978;52.742;16.962;2023-11-21T04:39:07;16.50;;;12.20;;
73678;SDS011;61978;52.742;16.962;2023-11-21T04:41:32;13.80;;;9.30;;
73678;SDS011;61978;52.742;16.962;2023-11-21T04:43:59;15.30;;;10.50;;
73678;SDS011;61978;52.742;16.962;2023-11-21T04:46:28;13.80;;;10.10;;
73678;SDS011;61978;52.742;16.962;2023-11-21T04:48:54;16.20;;;10.00;;
73678;SDS011;61978;52.742;16.962;2023-11-21T04:51:19;17.70;;;11.60;;
73678;SDS011;61978;52.742;16.962;2023-11-21T04:53:45;13.90;;;10.30;;
73678;SDS011;61978;52.742;16.962;2023-11-21T04:56:11;12.70;;;9.70;;
73678;SDS011;61978;52.742;16.962;2023-11-21T04:58:36;12.60;;;10.20;;
73678;SDS011;61978;52.742;16.962;2023-11-21T05:01:02;15.40;;;11.70;;
73678;SDS011;61978;52.742;16.962;2023-11-21T05:03:28;16.50;;;12.90;;
73678;SDS011;61978;52.742;16.962;2023-11-21T05:05:55;19.60;;;13.50;;
73678;SDS011;61978;52.742;16.962;2023-11-21T05:08:21;17.40;;;13.10;;
73678;SDS011;61978;52.742;16.962;2023-11-21T05:10:47;22.00;;;14.70;;
73678;SDS011;61978;52.742;16.962;2023-11-21T05:13:14;21.90;;;14.80;;
73678;SDS011;61978;52.742;16.962;2023-11-21T05:15:43;19.90;;;14.50;;
73678;SDS011;61978;52.742;16.962;2023-11-21T05:18:09;23.70;;;14.40;;
73678;SDS011;61978;52.742;16.962;2023-11-21T05:20:35;23.90;;;14.60;;
73678;SDS011;61978;52.742;16.962;2023-11-21T05:23:01;23.20;;;15.50;;
73678;SDS011;61978;52.742;16.962;2023-11-21T05:25:28;22.40;;;14.10;;
73678;SDS011;61978;52.742;16.962;2023-11-21T05:27:54;20.40;;;13.20;;
73678;SDS011;61978;52.742;16.962;2023-11-21T05:30:24;20.60;;;13.90;;
73678;SDS011;61978;52.742;16.962;2023-11-21T05:32:50;18.60;;;12.40;;
73678;SDS011;61978;52.742;16.962;2023-11-21T05:35:15;21.60;;;15.30;;
73678;SDS011;61978;52.742;16.962;2023-11-21T05:37:41;18.20;;;13.00;;
73678;SDS011;61978;52.742;16.962;2023-11-21T05:40:07;20.00;;;14.60;;
73678;SDS011;61978;52.742;16.962;2023-11-21T05:42:33;20.00;;;13.90;;
73678;SDS011;61978;52.742;16.962;2023-11-21T05:44:59;27.80;;;16.90;;
73678;SDS011;61978;52.742;16.962;2023-11-21T05:47:35;23.40;;;15.90;;
73678;SDS011;61978;52.742;16.962;2023-11-21T05:50:02;25.10;;;16.00;;
73678;SDS011;61978;52.742;16.962;2023-11-21T05:52:28;19.60;;;14.40;;
73678;SDS011;61978;52.742;16.962;2023-11-21T05:54:54;21.80;;;16.00;;
73678;SDS011;61978;52.742;16.962;2023-11-21T05:57:19;23.60;;;15.20;;
73678;SDS011;61978;52.742;16.962;2023-11-21T05:59:45;19.80;;;14.80;;
73678;SDS011;61978;52.742;16.962;2023-11-21T06:02:11;22.70;;;14.90;;
73678;SDS011;61978;52.742;16.962;2023-11-21T06:04:36;24.00;;;15.90;;
73678;SDS011;61978;52.742;16.962;2023-11-21T06:07:02;20.90;;;15.90;;
73678;SDS011;61978;52.742;16.962;2023-11-21T06:09:28;28.90;;;17.10;;
73678;SDS011;61978;52.742;16.962;2023-11-21T06:11:53;27.60;;;18.40;;
73678;SDS011;61978;52.742;16.962;2023-11-21T06:14:19;23.30;;;16.80;;
73678;SDS011;61978;52.742;16.962;2023-11-21T06:16:47;22.40;;;16.40;;
73678;SDS011;61978;52.742;16.962;2023-11-21T06:19:13;26.60;;;18.60;;
73678;SDS011;61978;52.742;16.962;2023-11-21T06:21:40;19.70;;;12.90;;
73678;SDS011;61978;52.742;16.962;2023-11-21T06:24:06;22.80;;;15.70;;
73678;SDS011;61978;52.742;16.962;2023-11-21T06:26:32;20.40;;;16.00;;
73678;SDS011;61978;52.742;16.962;2023-11-21T06:28:58;25.30;;;14.20;;
73678;SDS011;61978;52.742;16.962;2023-11-21T06:31:24;21.10;;;14.60;;
73678;SDS011;61978;52.742;16.962;2023-11-21T06:33:49;23.20;;;15.30;;
73678;SDS011;61978;52.742;16.962;2023-11-21T06:36:17;21.30;;;15.40;;
73678;SDS011;61978;52.742;16.962;2023-11-21T06:38:43;19.40;;;14.20;;
73678;SDS011;61978;52.742;16.962;2023-11-21T06:41:10;19.80;;;14.50;;
73678;SDS011;61978;52.742;16.962;2023-11-21T06:43:36;24.20;;;16.20;;
73678;SDS011;61978;52.742;16.962;2023-11-21T06:46:01;23.10;;;16.00;;
73678;SDS011;61978;52.742;16.962;2023-11-21T06:48:27;24.20;;;16.60;;
73678;SDS011;61978;52.742;16.962;2023-11-21T06:50:52;22.80;;;16.10;;
73678;SDS011;61978;52.742;16.962;2023-11-21T06:53:19;22.50;;;16.70;;
73678;SDS011;61978;52.742;16.962;2023-11-21T06:55:45;20.60;;;15.80;;
73678;SDS011;61978;52.742;16.962;2023-11-21T06:58:10;22.10;;;17.10;;
73678;SDS011;61978;52.742;16.962;2023-11-21T07:00:36;22.10;;;14.50;;
73678;SDS011;61978;52.742;16.962;2023-11-21T07:03:03;24.20;;;18.60;;
73678;SDS011;61978;52.742;16.962;2023-11-21T07:05:29;23.40;;;17.40;;
73678;SDS011;61978;52.742;16.962;2023-11-21T07:07:55;24.40;;;17.90;;
73678;SDS011;61978;52.742;16.962;2023-11-21T07:10:21;25.20;;;17.70;;
73678;SDS011;61978;52.742;16.962;2023-11-21T07:12:47;24.60;;;17.40;;
73678;SDS011;61978;52.742;16.962;2023-11-21T07:15:13;24.30;;;17.40;;
73678;SDS011;61978;52.742;16.962;2023-11-21T07:17:39;28.60;;;18.90;;
73678;SDS011;61978;52.742;16.962;2023-11-21T07:20:06;30.60;;;21.00;;
73678;SDS011;61978;52.742;16.962;2023-11-21T07:22:32;29.90;;;20.70;;
73678;SDS011;61978;52.742;16.962;2023-11-21T07:24:59;31.10;;;22.00;;
73678;SDS011;61978;52.742;16.962;2023-11-21T07:27:24;27.60;;;19.60;;
73678;SDS011;61978;52.742;16.962;2023-11-21T07:29:50;28.30;;;19.90;;
73678;SDS011;61978;52.742;16.962;2023-11-21T07:32:16;33.00;;;21.80;;
73678;SDS011;61978;52.742;16.962;2023-11-21T07:34:43;106.80;;;72.20;;
73678;SDS011;61978;52.742;16.962;2023-11-21T07:37:09;48.50;;;39.00;;
73678;SDS011;61978;52.742;16.962;2023-11-21T07:39:35;30.50;;;20.60;;
73678;SDS011;61978;52.742;16.962;2023-11-21T07:42:01;26.20;;;19.10;;
73678;SDS011;61978;52.742;16.962;2023-11-21T07:44:28;38.60;;;22.80;;
73678;SDS011;61978;52.742;16.962;2023-11-21T07:46:54;39.30;;;25.70;;
73678;SDS011;61978;52.742;16.962;2023-11-21T07:49:23;29.50;;;20.10;;
73678;SDS011;61978;52.742;16.962;2023-11-21T07:51:52;40.50;;;26.20;;
73678;SDS011;61978;52.742;16.962;2023-11-21T07:54:18;52.40;;;27.70;;
73678;SDS011;61978;52.742;16.962;2023-11-21T07:56:44;37.80;;;23.40;;
73678;SDS011;61978;52.742;16.962;2023-11-21T07:59:10;52.10;;;30.80;;
73678;SDS011;61978;52.742;16.962;2023-11-21T08:01:37;61.70;;;36.30;;
73678;SDS011;61978;52.742;16.962;2023-11-21T08:04:03;42.10;;;27.30;;
73678;SDS011;61978;52.742;16.962;2023-11-21T08:06:32;33.40;;;23.90;;
73678;SDS011;61978;52.742;16.962;2023-11-21T08:08:58;40.00;;;27.20;;
73678;SDS011;61978;52.742;16.962;2023-11-21T08:11:24;97.10;;;47.90;;
73678;SDS011;61978;52.742;16.962;2023-11-21T08:13:51;53.00;;;31.80;;
73678;SDS011;61978;52.742;16.962;2023-11-21T08:16:17;51.10;;;31.80;;
73678;SDS011;61978;52.742;16.962;2023-11-21T08:18:43;38.50;;;25.50;;
73678;SDS011;61978;52.742;16.962;2023-11-21T08:21:09;60.40;;;33.40;;
73678;SDS011;61978;52.742;16.962;2023-11-21T08:23:37;33.80;;;21.60;;
73678;SDS011;61978;52.742;16.962;2023-11-21T08:26:04;39.10;;;23.20;;
73678;SDS011;61978;52.742;16.962;2023-11-21T08:28:30;37.30;;;22.80;;
73678;SDS011;61978;52.742;16.962;2023-11-21T08:30:57;38.20;;;24.50;;
73678;SDS011;61978;52.742;16.962;2023-11-21T08:33:22;65.00;;;38.60;;
73678;SDS011;61978;52.742;16.962;2023-11-21T08:35:48;40.50;;;23.90;;
73678;SDS011;61978;52.742;16.962;2023-11-21T08:38:14;34.10;;;21.60;;
73678;SDS011;61978;52.742;16.962;2023-11-21T08:40:40;32.10;;;21.10;;
73678;SDS011;61978;52.742;16.962;2023-11-21T08:43:06;35.10;;;22.70;;
73678;SDS011;61978;52.742;16.962;2023-11-21T08:45:32;27.50;;;21.20;;
73678;SDS011;61978;52.742;16.962;2023-11-21T08:48:01;33.00;;;22.90;;
73678;SDS011;61978;52.742;16.962;2023-11-21T08:50:27;35.00;;;22.40;;
73678;SDS011;61978;52.742;16.962;2023-11-21T08:52:53;46.00;;;25.70;;
73678;SDS011;61978;52.742;16.962;2023-11-21T08:55:19;36.40;;;23.50;;
73678;SDS011;61978;52.742;16.962;2023-11-21T08:57:45;40.00;;;27.10;;
73678;SDS011;61978;52.742;16.962;2023-11-21T09:00:12;35.60;;;25.80;;
73678;SDS011;61978;52.742;16.962;2023-11-21T09:02:38;32.20;;;23.70;;
73678;SDS011;61978;52.742;16.962;2023-11-21T09:05:05;40.60;;;26.40;;
73678;SDS011;61978;52.742;16.962;2023-11-21T09:07:32;35.20;;;24.10;;
73678;SDS011;61978;52.742;16.962;2023-11-21T09:09:57;32.20;;;20.80;;
73678;SDS011;61978;52.742;16.962;2023-11-21T09:12:26;37.50;;;25.70;;
73678;SDS011;61978;52.742;16.962;2023-11-21T09:14:52;34.00;;;22.80;;
73678;SDS011;61978;52.742;16.962;2023-11-21T09:17:18;32.70;;;22.20;;
73678;SDS011;61978;52.742;16.962;2023-11-21T09:19:45;36.30;;;26.40;;
73678;SDS011;61978;52.742;16.962;2023-11-21T09:22:15;37.80;;;25.50;;
73678;SDS011;61978;52.742;16.962;2023-11-21T09:24:42;37.30;;;24.80;;
73678;SDS011;61978;52.742;16.962;2023-11-21T09:27:08;37.00;;;26.10;;
73678;SDS011;61978;52.742;16.962;2023-11-21T09:29:39;39.90;;;26.80;;
73678;SDS011;61978;52.742;16.962;2023-11-21T09:32:05;41.00;;;27.60;;
73678;SDS011;61978;52.742;16.962;2023-11-21T09:34:34;41.20;;;29.00;;
73678;SDS011;61978;52.742;16.962;2023-11-21T09:37:04;35.90;;;26.10;;
73678;SDS011;61978;52.742;16.962;2023-11-21T09:39:32;39.70;;;27.20;;
73678;SDS011;61978;52.742;16.962;2023-11-21T09:42:10;40.00;;;27.20;;
73678;SDS011;61978;52.742;16.962;2023-11-21T09:47:08;43.20;;;27.20;;
73678;SDS011;61978;52.742;16.962;2023-11-21T09:49:36;41.80;;;24.10;;
73678;SDS011;61978;52.742;16.962;2023-11-21T09:52:02;30.20;;;20.50;;
73678;SDS011;61978;52.742;16.962;2023-11-21T09:54:30;33.80;;;23.80;;
73678;SDS011;61978;52.742;16.962;2023-11-21T09:56:57;35.20;;;25.50;;
73678;SDS011;61978;52.742;16.962;2023-11-21T09:59:25;36.70;;;25.00;;
73678;SDS011;61978;52.742;16.962;2023-11-21T10:01:54;42.50;;;25.70;;
73678;SDS011;61978;52.742;16.962;2023-11-21T10:04:20;35.00;;;23.70;;
73678;SDS011;61978;52.742;16.962;2023-11-21T10:06:46;34.80;;;22.40;;
73678;SDS011;61978;52.742;16.962;2023-11-21T10:09:12;61.10;;;39.70;;
73678;SDS011;61978;52.742;16.962;2023-11-21T10:11:43;56.80;;;40.00;;
73678;SDS011;61978;52.742;16.962;2023-11-21T10:14:12;46.60;;;31.10;;
73678;SDS011;61978;52.742;16.962;2023-11-21T10:16:40;50.80;;;38.60;;
73678;SDS011;61978;52.742;16.962;2023-11-21T10:19:07;31.30;;;21.50;;
73678;SDS011;61978;52.742;16.962;2023-11-21T10:21:33;26.20;;;21.10;;
73678;SDS011;61978;52.742;16.962;2023-11-21T10:23:59;29.90;;;22.50;;
73678;SDS011;61978;52.742;16.962;2023-11-21T10:26:25;31.20;;;22.60;;
73678;SDS011;61978;52.742;16.962;2023-11-21T10:29:10;78.70;;;45.20;;
73678;SDS011;61978;52.742;16.962;2023-11-21T10:31:43;57.40;;;36.30;;
73678;SDS011;61978;52.742;16.962;2023-11-21T10:34:13;34.10;;;25.20;;
73678;SDS011;61978;52.742;16.962;2023-11-21T10:36:40;61.60;;;35.60;;
73678;SDS011;61978;52.742;16.962;2023-11-21T10:39:05;34.10;;;23.20;;
73678;SDS011;61978;52.742;16.962;2023-11-21T10:41:33;32.30;;;22.80;;
73678;SDS011;61978;52.742;16.962;2023-11-21T10:44:01;46.40;;;27.40;;
73678;SDS011;61978;52.742;16.962;2023-11-21T10:46:31;70.90;;;38.80;;
73678;SDS011;61978;52.742;16.962;2023-11-21T10:48:59;67.10;;;46.00;;
73678;SDS011;61978;52.742;16.962;2023-11-21T10:51:25;29.10;;;20.70;;
73678;SDS011;61978;52.742;16.962;2023-11-21T10:53:51;51.20;;;29.60;;
73678;SDS011;61978;52.742;16.962;2023-11-21T10:56:18;55.30;;;31.60;;
73678;SDS011;61978;52.742;16.962;2023-11-21T10:58:45;26.10;;;19.50;;
73678;SDS011;61978;52.742;16.962;2023-11-21T11:01:11;24.70;;;19.00;;
73678;SDS011;61978;52.742;16.962;2023-11-21T11:03:40;26.10;;;16.70;;
73678;SDS011;61978;52.742;16.962;2023-11-21T11:06:07;22.30;;;17.30;;
73678;SDS011;61978;52.742;16.962;2023-11-21T11:08:37;25.30;;;18.10;;
73678;SDS011;61978;52.742;16.962;2023-11-21T11:11:06;24.50;;;18.60;;
73678;SDS011;61978;52.742;16.962;2023-11-21T11:13:33;24.60;;;19.80;;
73678;SDS011;61978;52.742;16.962;2023-11-21T11:15:59;43.10;;;27.20;;
73678;SDS011;61978;52.742;16.962;2023-11-21T11:18:32;31.50;;;22.30;;
73678;SDS011;61978;52.742;16.962;2023-11-21T11:23:51;27.80;;;19.40;;
73678;SDS011;61978;52.742;16.962;2023-11-21T11:33:58;26.10;;;18.10;;
73678;SDS011;61978;52.742;16.962;2023-11-21T11:36:26;27.00;;;17.20;;
73678;SDS011;61978;52.742;16.962;2023-11-21T11:38:55;25.80;;;17.70;;
73678;SDS011;61978;52.742;16.962;2023-11-21T11:41:25;23.90;;;18.30;;
73678;SDS011;61978;52.742;16.962;2023-11-21T11:43:53;24.50;;;16.30;;
73678;SDS011;61978;52.742;16.962;2023-11-21T11:46:19;21.00;;;15.10;;
73678;SDS011;61978;52.742;16.962;2023-11-21T11:48:47;20.80;;;15.20;;
73678;SDS011;61978;52.742;16.962;2023-11-21T11:51:15;24.60;;;15.70;;
73678;SDS011;61978;52.742;16.962;2023-11-21T11:53:46;22.80;;;16.70;;
73678;SDS011;61978;52.742;16.962;2023-11-21T11:56:24;20.80;;;15.10;;
73678;SDS011;61978;52.742;16.962;2023-11-21T11:58:55;25.00;;;18.70;;
73678;SDS011;61978;52.742;16.962;2023-11-21T12:01:21;25.40;;;17.90;;
73678;SDS011;61978;52.742;16.962;2023-11-21T12:06:34;22.20;;;14.90;;
73678;SDS011;61978;52.742;16.962;2023-11-21T12:09:01;20.50;;;15.60;;
73678;SDS011;61978;52.742;16.962;2023-11-21T12:11:31;23.40;;;16.20;;
73678;SDS011;61978;52.742;16.962;2023-11-21T12:14:01;24.00;;;17.20;;
73678;SDS011;61978;52.742;16.962;2023-11-21T12:16:32;24.00;;;18.60;;
73678;SDS011;61978;52.742;16.962;2023-11-21T12:18:58;28.00;;;17.50;;
73678;SDS011;61978;52.742;16.962;2023-11-21T12:21:24;24.40;;;17.50;;
73678;SDS011;61978;52.742;16.962;2023-11-21T12:23:51;21.60;;;16.30;;
73678;SDS011;61978;52.742;16.962;2023-11-21T12:26:16;20.00;;;15.00;;
73678;SDS011;61978;52.742;16.962;2023-11-21T12:28:43;24.80;;;16.40;;
73678;SDS011;61978;52.742;16.962;2023-11-21T12:31:09;24.00;;;15.60;;
73678;SDS011;61978;52.742;16.962;2023-11-21T12:33:36;23.60;;;14.30;;
73678;SDS011;61978;52.742;16.962;2023-11-21T12:36:02;22.20;;;15.20;;
73678;SDS011;61978;52.742;16.962;2023-11-21T12:38:35;24.30;;;17.70;;
73678;SDS011;61978;52.742;16.962;2023-11-21T12:41:00;19.80;;;12.70;;
73678;SDS011;61978;52.742;16.962;2023-11-21T12:43:26;24.20;;;15.00;;
73678;SDS011;61978;52.742;16.962;2023-11-21T12:46:04;19.40;;;14.90;;
73678;SDS011;61978;52.742;16.962;2023-11-21T12:48:31;20.40;;;14.20;;
73678;SDS011;61978;52.742;16.962;2023-11-21T12:50:57;18.90;;;14.50;;
73678;SDS011;61978;52.742;16.962;2023-11-21T12:53:26;22.40;;;16.10;;
73678;SDS011;61978;52.742;16.962;2023-11-21T12:55:51;20.70;;;15.60;;
73678;SDS011;61978;52.742;16.962;2023-11-21T12:58:17;19.80;;;14.30;;
73678;SDS011;61978;52.742;16.962;2023-11-21T13:00:46;16.60;;;13.80;;
73678;SDS011;61978;52.742;16.962;2023-11-21T13:03:13;16.50;;;13.70;;
73678;SDS011;61978;52.742;16.962;2023-11-21T13:05:42;21.70;;;14.30;;
73678;SDS011;61978;52.742;16.962;2023-11-21T13:08:11;23.10;;;16.20;;
73678;SDS011;61978;52.742;16.962;2023-11-21T13:10:39;18.90;;;14.20;;
73678;SDS011;61978;52.742;16.962;2023-11-21T13:13:08;19.20;;;15.00;;
73678;SDS011;61978;52.742;16.962;2023-11-21T13:15:38;22.20;;;17.70;;
73678;SDS011;61978;52.742;16.962;2023-11-21T13:18:05;23.90;;;15.60;;
73678;SDS011;61978;52.742;16.962;2023-11-21T13:20:31;22.90;;;17.80;;
73678;SDS011;61978;52.742;16.962;2023-11-21T13:22:58;23.30;;;16.80;;
73678;SDS011;61978;52.742;16.962;2023-11-21T13:25:28;25.20;;;15.20;;
73678;SDS011;61978;52.742;16.962;2023-11-21T13:27:54;30.10;;;21.30;;
73678;SDS011;61978;52.742;16.962;2023-11-21T13:30:20;39.10;;;28.80;;
73678;SDS011;61978;52.742;16.962;2023-11-21T13:32:51;31.20;;;23.50;;
73678;SDS011;61978;52.742;16.962;2023-11-21T13:35:18;22.00;;;16.30;;
73678;SDS011;61978;52.742;16.962;2023-11-21T13:37:50;19.50;;;15.60;;
73678;SDS011;61978;52.742;16.962;2023-11-21T13:40:27;21.10;;;16.20;;
73678;SDS011;61978;52.742;16.962;2023-11-21T13:42:53;21.50;;;16.50;;
73678;SDS011;61978;52.742;16.962;2023-11-21T13:45:20;18.50;;;15.50;;
73678;SDS011;61978;52.742;16.962;2023-11-21T13:47:49;20.80;;;15.00;;
73678;SDS011;61978;52.742;16.962;2023-11-21T13:50:17;22.30;;;17.10;;
73678;SDS011;61978;52.742;16.962;2023-11-21T13:52:48;23.70;;;18.00;;
73678;SDS011;61978;52.742;16.962;2023-11-21T13:55:15;59.40;;;29.20;;
73678;SDS011;61978;52.742;16.962;2023-11-21T13:57:42;35.30;;;24.00;;
73678;SDS011;61978;52.742;16.962;2023-11-21T14:00:15;25.30;;;16.20;;
73678;SDS011;61978;52.742;16.962;2023-11-21T14:03:01;40.30;;;25.50;;
73678;SDS011;61978;52.742;16.962;2023-11-21T14:05:31;28.40;;;18.80;;
73678;SDS011;61978;52.742;16.962;2023-11-21T14:07:59;22.10;;;17.30;;
73678;SDS011;61978;52.742;16.962;2023-11-21T14:10:30;19.80;;;16.50;;
73678;SDS011;61978;52.742;16.962;2023-11-21T14:13:09;25.90;;;17.30;;
73678;SDS011;61978;52.742;16.962;2023-11-21T14:15:41;23.20;;;16.40;;
73678;SDS011;61978;52.742;16.962;2023-11-21T14:18:11;20.20;;;16.40;;
73678;SDS011;61978;52.742;16.962;2023-11-21T14:20:40;20.70;;;15.00;;
73678;SDS011;61978;52.742;16.962;2023-11-21T14:23:13;20.40;;;14.60;;